createdAt,value
2022-07-25T00:00:11.712Z,52.21
2022-07-25T00:02:41.608Z,52.98
2022-07-25T00:05:09.051Z,53.11
2022-07-25T00:07:38.575Z,53.62
2022-07-25T00:10:06.561Z,53.20
2022-07-25T00:12:33.693Z,53.07
2022-07-25T00:15:00.646Z,52.54
2022-07-25T00:17:27.593Z,52.21
2022-07-25T00:19:54.508Z,52.04
2022-07-25T00:22:21.497Z,53.09
2022-07-25T00:24:53.021Z,52.18
2022-07-25T00:27:22.469Z,51.71
2022-07-25T00:29:53.900Z,52.13
2022-07-25T00:32:21.033Z,51.96
2022-07-25T00:34:54.849Z,51.30
2022-07-25T00:37:22.354Z,50.95
2022-07-25T00:39:49.433Z,50.60
2022-07-25T00:42:16.305Z,50.42
2022-07-25T00:44:43.180Z,50.68
2022-07-25T00:47:12.244Z,50.10
2022-07-25T00:49:41.394Z,50.67
2022-07-25T00:52:10.834Z,50.72
2022-07-25T00:54:37.720Z,50.28
2022-07-25T00:57:04.873Z,50.54
2022-07-25T00:59:31.773Z,50.73
2022-07-25T01:01:59.176Z,50.81
2022-07-25T01:04:26.225Z,50.04
2022-07-25T01:06:53.614Z,50.37
2022-07-25T01:09:21.231Z,49.68
2022-07-25T01:11:51.102Z,49.70
2022-07-25T01:14:22.030Z,50.14
2022-07-25T01:16:51.137Z,50.40
2022-07-25T01:19:20.657Z,50.14
2022-07-25T01:21:47.621Z,50.43
2022-07-25T01:24:16.991Z,49.99
2022-07-25T01:26:43.843Z,50.26
2022-07-25T01:29:13.215Z,50.04
2022-07-25T01:31:42.755Z,50.52
2022-07-25T01:34:11.811Z,50.37
2022-07-25T01:36:44.164Z,50.48
2022-07-25T01:39:16.088Z,50.75
2022-07-25T01:41:43.225Z,49.94
2022-07-25T01:44:10.351Z,49.70
2022-07-25T01:46:39.700Z,49.85
2022-07-25T01:49:06.875Z,49.42
2022-07-25T01:51:36.383Z,50.25
2022-07-25T01:54:03.958Z,49.75
2022-07-25T01:56:35.864Z,49.67
2022-07-25T01:59:02.835Z,49.66
2022-07-25T02:01:29.739Z,49.53
2022-07-25T02:04:00.141Z,49.87
2022-07-25T02:06:29.350Z,49.19
2022-07-25T02:08:58.786Z,48.83
2022-07-25T02:11:25.689Z,49.38
2022-07-25T02:13:52.569Z,49.15
2022-07-25T02:16:19.533Z,48.85
2022-07-25T02:18:58.669Z,49.13
2022-07-25T02:21:28.332Z,48.83
2022-07-25T02:23:57.784Z,49.09
2022-07-25T02:26:24.767Z,49.19
2022-07-25T02:28:51.885Z,49.65
2022-07-25T02:31:21.167Z,49.21
2022-07-25T02:33:48.026Z,49.47
2022-07-25T02:36:14.986Z,49.27
2022-07-25T02:38:44.375Z,49.14
2022-07-25T02:41:13.477Z,49.62
2022-07-25T02:43:40.389Z,49.64
2022-07-25T02:46:11.911Z,49.83
2022-07-25T02:48:39.073Z,50.11
2022-07-25T02:51:06.280Z,49.98
2022-07-25T02:53:55.931Z,49.88
2022-07-25T02:56:24.401Z,50.11
2022-07-25T02:58:51.453Z,50.05
2022-07-25T03:01:18.378Z,50.22
2022-07-25T03:03:50.006Z,50.54
2022-07-25T03:06:21.723Z,50.54
2022-07-25T03:08:48.609Z,50.65
2022-07-25T03:11:16.840Z,50.86
2022-07-25T03:13:44.180Z,50.65
2022-07-25T03:16:11.366Z,50.36
2022-07-25T03:18:40.863Z,50.54
2022-07-25T03:21:09.915Z,50.66
2022-07-25T03:23:36.874Z,50.20
2022-07-25T03:26:03.838Z,50.74
2022-07-25T03:28:30.670Z,50.53
2022-07-25T03:30:58.026Z,50.66
2022-07-25T03:33:24.868Z,50.66
2022-07-25T03:35:53.979Z,50.80
2022-07-25T03:38:24.648Z,51.27
2022-07-25T03:40:58.994Z,50.91
2022-07-25T03:43:30.733Z,50.67
2022-07-25T03:45:57.690Z,50.84
2022-07-25T03:48:29.633Z,50.71
2022-07-25T03:51:06.694Z,50.97
2022-07-25T03:53:54.480Z,51.08
2022-07-25T03:56:23.926Z,51.78
2022-07-25T03:58:55.435Z,51.30
2022-07-25T04:01:22.498Z,51.02
2022-07-25T04:03:49.688Z,50.86
2022-07-25T04:06:16.613Z,51.13
2022-07-25T04:08:43.457Z,51.42
2022-07-25T04:11:10.349Z,51.39
2022-07-25T04:13:40.360Z,50.72
2022-07-25T04:16:16.328Z,50.60
2022-07-25T04:18:53.292Z,50.42
2022-07-25T04:21:20.880Z,50.16
2022-07-25T04:23:49.505Z,49.88
2022-07-25T04:26:16.794Z,50.39
2022-07-25T04:28:44.027Z,49.63
2022-07-25T04:31:15.504Z,49.58
2022-07-25T04:33:43.029Z,49.47
2022-07-25T04:36:10.216Z,49.13
2022-07-25T04:38:39.782Z,48.87
2022-07-25T04:41:06.783Z,48.94
2022-07-25T04:43:37.128Z,48.56
2022-07-25T04:46:04.296Z,48.23
2022-07-25T04:48:33.522Z,48.48
2022-07-25T04:51:00.579Z,47.84
2022-07-25T04:53:27.701Z,47.80
2022-07-25T04:55:54.621Z,47.43
2022-07-25T04:58:23.664Z,47.83
2022-07-25T05:00:51.104Z,47.88
2022-07-25T05:03:20.198Z,47.30
2022-07-25T05:05:47.104Z,48.08
2022-07-25T05:08:16.068Z,47.50
2022-07-25T05:10:45.846Z,47.29
2022-07-25T05:13:15.241Z,47.38
2022-07-25T05:15:43.204Z,47.22
2022-07-25T05:18:12.393Z,47.15
2022-07-25T05:20:44.025Z,47.30
2022-07-25T05:23:10.864Z,46.83
2022-07-25T05:25:39.844Z,46.51
2022-07-25T05:28:06.790Z,46.66
2022-07-25T05:30:39.359Z,46.72
2022-07-25T05:33:06.862Z,46.43
2022-07-25T05:35:33.744Z,46.80
2022-07-25T05:38:00.776Z,46.85
2022-07-25T05:40:27.649Z,46.54
2022-07-25T05:43:02.389Z,46.12
2022-07-25T05:45:30.172Z,45.70
2022-07-25T05:47:57.004Z,45.36
2022-07-25T05:50:23.922Z,45.30
2022-07-25T05:52:55.502Z,44.61
2022-07-25T05:55:24.443Z,44.22
2022-07-25T05:57:51.320Z,44.38
2022-07-25T06:00:25.123Z,43.75
2022-07-25T06:02:52.146Z,44.67
2022-07-25T06:05:21.345Z,44.08
2022-07-25T06:07:50.484Z,43.78
2022-07-25T06:10:17.503Z,44.16
2022-07-25T06:12:44.455Z,44.87
2022-07-25T06:15:22.882Z,44.12
2022-07-25T06:17:58.269Z,44.06
2022-07-25T06:20:26.368Z,43.49
2022-07-25T06:22:55.833Z,43.47
2022-07-25T06:25:22.919Z,43.10
2022-07-25T06:27:51.869Z,43.19
2022-07-25T06:30:20.365Z,43.60
2022-07-25T06:32:51.586Z,43.14
2022-07-25T06:35:19.091Z,42.42
2022-07-25T06:37:46.584Z,41.96
2022-07-25T06:40:14.354Z,42.27
2022-07-25T06:42:47.185Z,42.21
2022-07-25T06:45:15.378Z,41.88
2022-07-25T06:47:45.571Z,41.36
2022-07-25T06:50:16.120Z,40.94
2022-07-25T06:52:42.990Z,40.54
2022-07-25T06:55:11.301Z,40.36
2022-07-25T06:57:38.417Z,40.62
2022-07-25T07:00:09.977Z,40.02
2022-07-25T07:02:53.397Z,40.06
2022-07-25T07:05:20.873Z,40.15
2022-07-25T07:07:48.391Z,40.29
2022-07-25T07:10:16.351Z,40.67
2022-07-25T07:12:44.117Z,39.62
2022-07-25T07:15:14.511Z,40.22
2022-07-25T07:17:44.041Z,39.66
2022-07-25T07:20:11.875Z,38.98
2022-07-25T07:22:49.309Z,38.97
2022-07-25T07:25:19.655Z,39.07
2022-07-25T07:27:49.976Z,37.75
2022-07-25T07:30:23.690Z,37.54
2022-07-25T07:32:54.315Z,36.94
2022-07-25T07:35:21.394Z,37.46
2022-07-25T07:37:48.880Z,36.60
2022-07-25T07:40:17.992Z,36.68
2022-07-25T07:42:47.988Z,36.06
2022-07-25T07:45:24.182Z,36.56
2022-07-25T07:47:53.368Z,35.54
2022-07-25T07:50:25.949Z,35.39
2022-07-25T07:52:58.613Z,35.31
2022-07-25T07:55:44.483Z,35.85
2022-07-25T07:58:20.196Z,35.18
2022-07-25T08:00:52.031Z,35.74
2022-07-25T08:03:23.560Z,35.53
2022-07-25T08:05:54.995Z,35.01
2022-07-25T08:08:22.070Z,34.53
2022-07-25T08:10:56.944Z,34.36
2022-07-25T08:13:30.349Z,34.41
2022-07-25T08:16:03.293Z,34.08
2022-07-25T08:18:33.978Z,34.09
2022-07-25T08:21:08.240Z,33.68
2022-07-25T08:23:38.882Z,33.13
2022-07-25T08:26:06.771Z,32.42
2022-07-25T08:28:33.812Z,32.08
2022-07-25T08:31:01.254Z,32.24
2022-07-25T08:33:28.420Z,32.17
2022-07-25T08:35:56.513Z,32.03
2022-07-25T08:38:26.412Z,31.38
2022-07-25T08:40:57.377Z,31.31
2022-07-25T08:43:27.262Z,31.34
2022-07-25T08:45:55.690Z,31.22
2022-07-25T08:48:27.050Z,31.08
2022-07-25T08:50:57.447Z,31.25
2022-07-25T08:53:34.401Z,30.62
2022-07-25T08:56:10.641Z,31.13
2022-07-25T08:58:41.812Z,31.11
2022-07-25T09:01:12.724Z,30.32
2022-07-25T09:03:40.375Z,30.41
2022-07-25T09:06:22.568Z,29.67
2022-07-25T09:08:58.945Z,29.99
2022-07-25T09:11:37.377Z,29.68
2022-07-25T09:14:15.089Z,28.86
2022-07-25T09:16:46.425Z,29.49
2022-07-25T09:19:20.994Z,29.67
2022-07-25T09:22:10.351Z,29.81
2022-07-25T09:24:45.169Z,29.96
2022-07-25T09:27:13.038Z,29.61
2022-07-25T09:29:45.408Z,28.76
2022-07-25T09:32:22.101Z,28.44
2022-07-25T09:34:50.864Z,28.84
2022-07-25T09:37:25.209Z,28.68
2022-07-25T09:39:52.491Z,28.73
2022-07-25T09:42:32.214Z,28.60
2022-07-25T09:45:12.631Z,27.84
2022-07-25T09:48:06.676Z,27.83
2022-07-25T09:50:33.878Z,27.29
2022-07-25T09:53:02.779Z,27.48
2022-07-25T09:55:30.821Z,27.80
2022-07-25T09:57:58.069Z,27.79
2022-07-25T10:00:31.827Z,28.55
2022-07-25T10:03:39.157Z,28.07
2022-07-25T10:06:14.488Z,28.35
2022-07-25T10:08:41.991Z,28.31
2022-07-25T10:11:25.841Z,28.42
2022-07-25T10:14:09.155Z,27.79
2022-07-25T10:16:47.048Z,27.59
2022-07-25T10:19:19.621Z,27.84
2022-07-25T10:21:57.883Z,26.41
2022-07-25T10:24:34.419Z,26.31
2022-07-25T10:27:12.790Z,26.77
2022-07-25T10:29:41.643Z,28.01
2022-07-25T10:32:14.058Z,27.94
2022-07-25T10:34:41.000Z,28.11
2022-07-25T10:37:18.390Z,27.90
2022-07-25T10:39:46.333Z,28.36
2022-07-25T10:42:16.078Z,27.88
2022-07-25T10:44:49.980Z,28.09
2022-07-25T10:47:18.094Z,27.18
2022-07-25T10:50:16.467Z,27.45
2022-07-25T10:52:44.425Z,27.16
2022-07-25T10:55:22.500Z,26.53
2022-07-25T10:58:22.158Z,26.42
2022-07-25T11:00:54.170Z,26.16
2022-07-25T11:03:29.181Z,25.53
2022-07-25T11:05:56.036Z,25.09
2022-07-25T11:08:33.058Z,25.04
2022-07-25T11:11:02.748Z,24.61
2022-07-25T11:13:30.433Z,24.96
2022-07-25T11:16:00.735Z,24.39
2022-07-25T11:18:43.626Z,24.43
2022-07-25T11:21:12.682Z,24.27
2022-07-25T11:23:40.765Z,24.89
2022-07-25T11:26:15.292Z,25.04
2022-07-25T11:28:52.063Z,25.26
2022-07-25T11:31:22.952Z,25.19
2022-07-25T11:33:52.408Z,25.97
2022-07-25T11:36:21.976Z,26.55
2022-07-25T11:38:51.717Z,25.81
2022-07-25T11:41:30.274Z,25.84
2022-07-25T11:43:59.788Z,25.92
2022-07-25T11:46:31.219Z,26.37
2022-07-25T11:49:08.938Z,25.40
2022-07-25T11:51:38.909Z,26.04
2022-07-25T11:54:13.310Z,26.06
2022-07-25T11:56:42.825Z,25.18
2022-07-25T11:59:11.338Z,25.44
2022-07-25T12:01:45.020Z,25.33
2022-07-25T12:04:21.001Z,25.79
2022-07-25T12:06:52.118Z,25.43
2022-07-25T12:09:22.379Z,25.71
2022-07-25T12:12:01.362Z,25.22
2022-07-25T12:14:32.327Z,25.73
2022-07-25T12:17:02.225Z,26.08
2022-07-25T12:19:29.309Z,26.11
2022-07-25T12:21:56.188Z,25.29
2022-07-25T12:24:23.573Z,25.15
2022-07-25T12:26:50.455Z,24.47
2022-07-25T12:29:19.821Z,24.09
2022-07-25T12:31:48.794Z,23.62
2022-07-25T12:34:15.720Z,23.94
2022-07-25T12:36:45.571Z,23.96
2022-07-25T12:39:19.719Z,24.34
2022-07-25T12:41:49.708Z,25.01
2022-07-25T12:44:16.621Z,24.95
2022-07-25T12:46:49.219Z,24.62
2022-07-25T12:49:19.747Z,24.45
2022-07-25T12:51:46.679Z,24.61
2022-07-25T12:54:21.862Z,24.16
2022-07-25T12:56:51.675Z,24.26
2022-07-25T12:59:21.236Z,24.77
2022-07-25T13:01:48.505Z,24.46
2022-07-25T13:04:17.779Z,24.29
2022-07-25T13:06:47.177Z,24.96
2022-07-25T13:09:16.610Z,25.03
2022-07-25T13:11:43.642Z,25.94
2022-07-25T13:14:10.751Z,26.55
2022-07-25T13:16:37.986Z,26.85
2022-07-25T13:19:08.828Z,26.69
2022-07-25T13:21:38.956Z,26.76
2022-07-25T13:24:12.621Z,27.33
2022-07-25T13:26:39.988Z,27.12
2022-07-25T13:29:11.877Z,28.06
2022-07-25T13:31:42.912Z,28.01
2022-07-25T13:34:10.741Z,28.12
2022-07-25T13:36:39.505Z,28.36
2022-07-25T13:39:09.272Z,27.61
2022-07-25T13:41:36.363Z,28.90
2022-07-25T13:44:05.917Z,28.59
2022-07-25T13:46:33.795Z,29.38
2022-07-25T13:49:00.959Z,29.23
2022-07-25T13:51:27.888Z,29.69
2022-07-25T13:53:55.097Z,29.33
2022-07-25T13:56:24.297Z,29.36
2022-07-25T13:58:53.739Z,29.64
2022-07-25T14:01:20.746Z,30.24
2022-07-25T14:03:47.852Z,29.82
2022-07-25T14:06:14.751Z,30.01
2022-07-25T14:08:44.801Z,30.11
2022-07-25T14:11:14.683Z,30.04
2022-07-25T14:13:43.504Z,30.43
2022-07-25T14:16:10.419Z,29.96
2022-07-25T14:18:37.357Z,29.17
2022-07-25T14:21:09.328Z,29.01
2022-07-25T14:23:36.245Z,28.60
2022-07-25T14:26:03.437Z,28.52
2022-07-25T14:28:30.610Z,28.23
2022-07-25T14:31:00.226Z,28.60
2022-07-25T14:33:31.719Z,28.76
2022-07-25T14:35:59.626Z,28.20
2022-07-25T14:38:26.575Z,29.03
2022-07-25T14:40:57.952Z,28.52
2022-07-25T14:43:24.836Z,28.66
2022-07-25T14:45:54.308Z,28.21
2022-07-25T14:48:21.182Z,28.67
2022-07-25T14:50:48.078Z,28.24
2022-07-25T14:53:15.033Z,28.92
2022-07-25T14:55:44.164Z,28.50
2022-07-25T14:58:12.097Z,28.21
2022-07-25T15:00:42.745Z,28.67
2022-07-25T15:03:12.838Z,28.17
2022-07-25T15:05:41.598Z,28.38
2022-07-25T15:08:08.496Z,28.70
2022-07-25T15:10:35.396Z,29.98
2022-07-25T15:13:29.278Z,29.38
2022-07-25T15:15:54.695Z,29.59
2022-07-25T15:18:22.056Z,30.10
2022-07-25T15:20:48.943Z,29.65
2022-07-25T15:23:15.881Z,29.80
2022-07-25T15:26:01.063Z,30.76
2022-07-25T15:28:29.061Z,30.97
2022-07-25T15:30:55.978Z,31.32
2022-07-25T15:33:25.941Z,30.87
2022-07-25T15:35:53.144Z,31.14
2022-07-25T15:38:22.941Z,36.69
2022-07-25T15:40:50.136Z,39.28
2022-07-25T15:43:19.192Z,43.28
2022-07-25T15:45:46.867Z,46.36
2022-07-25T15:48:18.074Z,53.29
2022-07-25T15:50:55.912Z,59.53
2022-07-25T15:53:22.885Z,61.12
2022-07-25T15:55:54.500Z,64.40
2022-07-25T15:58:24.508Z,64.61
2022-07-25T16:00:54.458Z,64.50
2022-07-25T16:03:21.685Z,64.48
2022-07-25T16:05:51.668Z,63.77
2022-07-25T16:08:18.704Z,65.59
2022-07-25T16:10:48.258Z,67.65
2022-07-25T16:13:15.157Z,68.35
2022-07-25T16:15:44.262Z,69.05
2022-07-25T16:18:13.284Z,69.76
2022-07-25T16:20:42.583Z,70.76
2022-07-25T16:23:09.715Z,70.55
2022-07-25T16:25:36.583Z,70.82
2022-07-25T16:28:03.624Z,70.62
2022-07-25T16:30:32.987Z,70.99
2022-07-25T16:33:02.996Z,70.44
2022-07-25T16:35:32.610Z,69.64
2022-07-25T16:37:59.504Z,70.38
2022-07-25T16:40:30.899Z,68.41
2022-07-25T16:42:59.320Z,68.59
2022-07-25T16:45:27.214Z,68.80
2022-07-25T16:47:54.448Z,66.87
2022-07-25T16:50:23.961Z,68.18
2022-07-25T16:52:56.368Z,68.44
2022-07-25T16:55:25.476Z,67.67
2022-07-25T16:57:55.031Z,66.53
2022-07-25T17:00:24.915Z,67.19
2022-07-25T17:02:51.858Z,66.34
2022-07-25T17:05:18.885Z,66.17
2022-07-25T17:07:57.122Z,67.65
2022-07-25T17:10:26.649Z,67.21
2022-07-25T17:12:53.726Z,66.47
2022-07-25T17:15:20.779Z,66.34
2022-07-25T17:17:47.749Z,68.23
2022-07-25T17:20:14.811Z,68.94
2022-07-25T17:22:44.081Z,69.84
2022-07-25T17:25:11.848Z,69.21
2022-07-25T17:27:41.851Z,70.53
2022-07-25T17:30:11.904Z,70.15
2022-07-25T17:32:39.600Z,69.96
2022-07-25T17:35:06.749Z,69.60
2022-07-25T17:37:36.189Z,70.14
2022-07-25T17:40:08.645Z,70.54
2022-07-25T17:42:35.543Z,70.26
2022-07-25T17:45:05.810Z,70.10
2022-07-25T17:47:34.689Z,70.06
2022-07-25T17:50:06.814Z,70.66
2022-07-25T17:52:38.193Z,70.45
2022-07-25T17:55:05.776Z,70.71
2022-07-25T17:57:33.100Z,69.98
2022-07-25T18:00:00.795Z,71.36
2022-07-25T18:02:33.846Z,71.47
2022-07-25T18:05:00.781Z,71.22
2022-07-25T18:07:27.624Z,71.48
2022-07-25T18:09:56.666Z,71.64
2022-07-25T18:12:29.445Z,71.79
2022-07-25T18:14:56.622Z,71.52
2022-07-25T18:17:23.461Z,72.41
2022-07-25T18:19:53.390Z,72.84
2022-07-25T18:22:23.213Z,72.21
2022-07-25T18:24:50.088Z,73.36
2022-07-25T18:27:19.740Z,73.61
2022-07-25T18:29:46.682Z,73.51
2022-07-25T18:32:13.566Z,74.29
2022-07-25T18:34:40.578Z,73.77
2022-07-25T18:37:10.511Z,73.83
2022-07-25T18:39:37.378Z,73.95
2022-07-25T18:42:06.355Z,73.20
2022-07-25T18:44:33.320Z,74.47
2022-07-25T18:47:01.430Z,74.92
2022-07-25T18:49:31.265Z,74.01
2022-07-25T18:51:58.227Z,74.43
2022-07-25T18:54:27.200Z,74.06
2022-07-25T18:56:54.151Z,75.48
2022-07-25T18:59:21.140Z,75.46
2022-07-25T19:01:48.067Z,75.79
2022-07-25T19:04:15.392Z,75.83
2022-07-25T19:06:42.312Z,75.58
2022-07-25T19:09:11.822Z,75.86
2022-07-25T19:11:42.365Z,76.18
2022-07-25T19:14:10.089Z,75.60
2022-07-25T19:16:41.957Z,75.86
2022-07-25T19:19:09.719Z,76.37
2022-07-25T19:21:37.747Z,75.65
2022-07-25T19:24:05.718Z,75.37
2022-07-25T19:26:32.995Z,76.30
2022-07-25T19:29:02.935Z,76.81
2022-07-25T19:31:29.977Z,78.40
2022-07-25T19:33:56.983Z,81.77
2022-07-25T19:36:23.864Z,81.41
2022-07-25T19:38:53.801Z,81.34
2022-07-25T19:41:23.433Z,82.23
2022-07-25T19:43:52.450Z,84.10
2022-07-25T19:46:22.203Z,84.43
2022-07-25T19:48:50.173Z,84.49
2022-07-25T19:51:20.210Z,84.42
2022-07-25T19:53:47.140Z,84.25
2022-07-25T19:56:13.986Z,83.82
2022-07-25T19:58:43.230Z,83.90
2022-07-25T20:01:11.813Z,83.57
2022-07-25T20:03:39.077Z,82.54
2022-07-25T20:06:08.261Z,84.50
2022-07-25T20:08:37.199Z,85.46
2022-07-25T20:11:04.202Z,86.00
2022-07-25T20:13:31.086Z,86.63
2022-07-25T20:15:58.708Z,86.18
2022-07-25T20:18:26.145Z,85.64
2022-07-25T20:20:53.358Z,86.74
2022-07-25T20:23:23.421Z,87.15
2022-07-25T20:25:51.032Z,88.69
2022-07-25T20:28:18.037Z,87.27
2022-07-25T20:30:44.989Z,87.93
2022-07-25T20:33:12.032Z,88.21
2022-07-25T20:35:41.579Z,89.68
2022-07-25T20:38:11.840Z,88.55
2022-07-25T20:40:46.352Z,88.19
2022-07-25T20:43:17.570Z,87.84
2022-07-25T20:45:47.885Z,88.30
2022-07-25T20:48:14.873Z,89.14
2022-07-25T20:50:43.956Z,90.07
2022-07-25T20:53:13.398Z,89.47
2022-07-25T20:55:42.795Z,89.24
2022-07-25T20:58:09.720Z,89.65
2022-07-25T21:00:36.707Z,88.83
2022-07-25T21:03:08.636Z,92.08
2022-07-25T21:05:37.646Z,91.69
2022-07-25T21:08:10.951Z,91.00
2022-07-25T21:10:39.431Z,91.28
2022-07-25T21:13:06.546Z,89.59
2022-07-25T21:15:36.606Z,88.78
2022-07-25T21:18:03.673Z,87.88
2022-07-25T21:20:35.129Z,86.21
2022-07-25T21:23:01.958Z,85.01
2022-07-25T21:25:31.836Z,84.35
2022-07-25T21:27:58.781Z,81.38
2022-07-25T21:30:25.942Z,81.29
2022-07-25T21:32:52.825Z,79.82
2022-07-25T21:35:22.375Z,79.08
2022-07-25T21:37:52.386Z,78.39
2022-07-25T21:40:21.801Z,77.15
2022-07-25T21:42:48.693Z,76.94
2022-07-25T21:45:17.940Z,76.08
2022-07-25T21:47:44.946Z,76.47
2022-07-25T21:50:30.935Z,76.09
2022-07-25T21:52:58.560Z,76.74
2022-07-25T21:55:28.802Z,75.42
2022-07-25T21:57:55.673Z,75.79
2022-07-25T22:00:23.188Z,76.12
2022-07-25T22:02:55.334Z,76.75
2022-07-25T22:05:25.017Z,76.21
2022-07-25T22:07:54.644Z,75.61
2022-07-25T22:10:22.497Z,75.81
2022-07-25T22:12:49.685Z,75.49
2022-07-25T22:15:17.333Z,76.37
2022-07-25T22:17:49.768Z,76.21
2022-07-25T22:20:19.434Z,75.39
2022-07-25T22:22:48.895Z,75.33
2022-07-25T22:25:17.104Z,75.03
2022-07-25T22:27:46.463Z,75.15
2022-07-25T22:30:18.874Z,74.22
2022-07-25T22:32:48.105Z,74.05
2022-07-25T22:35:15.985Z,73.65
2022-07-25T22:37:44.382Z,73.41
2022-07-25T22:40:12.735Z,73.55
2022-07-25T22:42:39.603Z,73.83
2022-07-25T22:45:09.626Z,73.70
2022-07-25T22:47:36.519Z,74.08
2022-07-25T22:50:05.359Z,74.29
2022-07-25T22:52:34.908Z,74.01
2022-07-25T22:55:01.806Z,74.31
2022-07-25T22:57:28.675Z,74.10
2022-07-25T22:59:55.606Z,73.73
2022-07-25T23:02:27.970Z,73.38
2022-07-25T23:04:57.075Z,72.50
2022-07-25T23:07:26.058Z,72.79
2022-07-25T23:09:55.040Z,73.20
2022-07-25T23:12:24.141Z,72.96
2022-07-25T23:14:51.032Z,72.26
2022-07-25T23:17:18.113Z,72.24
2022-07-25T23:19:50.109Z,71.97
2022-07-25T23:22:19.466Z,71.53
2022-07-25T23:24:47.019Z,71.09
2022-07-25T23:27:14.277Z,71.72
2022-07-25T23:29:41.980Z,72.00
2022-07-25T23:32:11.457Z,70.98
2022-07-25T23:34:42.887Z,70.77
2022-07-25T23:37:12.554Z,70.16
2022-07-25T23:39:42.440Z,71.43
2022-07-25T23:42:11.471Z,71.30
2022-07-25T23:44:42.091Z,71.03
2022-07-25T23:47:11.365Z,70.40
2022-07-25T23:49:40.908Z,70.34
2022-07-25T23:52:10.308Z,70.45
2022-07-25T23:54:38.725Z,70.42
2022-07-25T23:57:08.908Z,71.13
2022-07-25T23:59:38.879Z,70.85
